createdAt,value
2023-03-16T00:00:47.106Z,1.90
2023-03-16T00:03:20.928Z,1.90
2023-03-16T00:05:49.166Z,1.90
2023-03-16T00:08:18.264Z,1.90
2023-03-16T00:10:47.946Z,1.90
2023-03-16T00:13:15.209Z,1.90
2023-03-16T00:15:51.041Z,2.00
2023-03-16T00:18:18.645Z,1.90
2023-03-16T00:20:45.607Z,1.80
2023-03-16T00:23:13.074Z,1.90
2023-03-16T00:25:40.617Z,1.90
2023-03-16T00:28:07.938Z,1.90
2023-03-16T00:30:34.816Z,2.00
2023-03-16T00:33:05.037Z,2.00
2023-03-16T00:35:35.430Z,2.00
2023-03-16T00:38:02.392Z,1.80
2023-03-16T00:40:31.012Z,1.80
2023-03-16T00:42:57.932Z,1.80
2023-03-16T00:45:25.549Z,1.70
2023-03-16T00:47:54.232Z,1.80
2023-03-16T00:50:23.213Z,1.80
2023-03-16T00:52:53.553Z,1.80
2023-03-16T00:55:21.647Z,1.80
2023-03-16T00:57:49.145Z,1.90
2023-03-16T01:00:20.761Z,1.90
2023-03-16T01:02:48.076Z,1.90
2023-03-16T01:05:16.317Z,1.90
2023-03-16T01:07:45.102Z,1.90
2023-03-16T01:10:13.667Z,1.80
2023-03-16T01:12:41.148Z,1.70
2023-03-16T01:15:10.385Z,1.70
2023-03-16T01:17:37.841Z,1.60
2023-03-16T01:20:08.252Z,1.60
2023-03-16T01:22:35.730Z,1.70
2023-03-16T01:25:06.091Z,1.80
2023-03-16T01:27:33.612Z,1.80
2023-03-16T01:30:00.843Z,1.70
2023-03-16T01:32:27.810Z,1.80
2023-03-16T01:34:55.241Z,1.70
2023-03-16T01:37:23.009Z,1.70
2023-03-16T01:39:50.755Z,1.60
2023-03-16T01:42:19.060Z,1.60
2023-03-16T01:44:56.699Z,1.60
2023-03-16T01:47:24.020Z,1.50
2023-03-16T01:49:55.434Z,1.50
2023-03-16T01:52:26.188Z,1.50
2023-03-16T01:54:58.392Z,1.40
2023-03-16T01:57:30.493Z,1.50
2023-03-16T02:00:10.404Z,1.60
2023-03-16T02:05:33.778Z,1.60
2023-03-16T02:08:02.951Z,1.60
2023-03-16T02:10:30.933Z,1.60
2023-03-16T02:12:59.963Z,1.50
2023-03-16T02:15:27.399Z,1.50
2023-03-16T02:17:57.754Z,1.50
2023-03-16T02:20:35.855Z,1.60
2023-03-16T02:23:05.351Z,1.60
2023-03-16T02:25:42.102Z,1.60
2023-03-16T02:28:20.981Z,1.60
2023-03-16T02:30:49.622Z,1.60
2023-03-16T02:33:18.722Z,1.40
2023-03-16T02:35:45.751Z,1.40
2023-03-16T02:38:13.125Z,1.40
2023-03-16T02:40:43.930Z,1.50
2023-03-16T02:43:17.626Z,1.50
2023-03-16T02:45:51.140Z,1.50
2023-03-16T02:48:23.776Z,1.60
2023-03-16T02:50:54.462Z,1.50
2023-03-16T02:53:22.336Z,1.50
2023-03-16T02:55:49.502Z,1.60
2023-03-16T02:58:16.971Z,1.50
2023-03-16T03:00:45.309Z,1.50
2023-03-16T03:03:14.610Z,1.40
2023-03-16T03:05:41.583Z,1.40
2023-03-16T03:08:09.157Z,1.50
2023-03-16T03:10:36.066Z,1.50
2023-03-16T03:13:03.644Z,1.60
2023-03-16T03:15:30.602Z,1.50
2023-03-16T03:17:58.509Z,1.50
2023-03-16T03:20:27.066Z,1.40
2023-03-16T03:22:54.716Z,1.40
2023-03-16T03:25:22.736Z,1.40
2023-03-16T03:27:51.278Z,1.40
2023-03-16T03:30:20.864Z,1.30
2023-03-16T03:32:48.651Z,1.30
2023-03-16T03:35:16.910Z,1.30
2023-03-16T03:37:45.745Z,1.30
2023-03-16T03:40:16.321Z,1.30
2023-03-16T03:42:43.973Z,1.20
2023-03-16T03:45:12.871Z,1.30
2023-03-16T03:47:41.875Z,1.30
2023-03-16T03:50:11.856Z,1.20
2023-03-16T03:52:39.362Z,1.20
2023-03-16T03:55:09.467Z,1.10
2023-03-16T03:57:36.601Z,1.10
2023-03-16T04:00:07.943Z,1.20
2023-03-16T04:02:35.191Z,1.30
2023-03-16T04:05:02.246Z,1.30
2023-03-16T04:07:29.768Z,1.20
2023-03-16T04:09:57.162Z,1.20
2023-03-16T04:12:26.037Z,1.20
2023-03-16T04:14:52.980Z,1.20
2023-03-16T04:17:20.467Z,1.20
2023-03-16T04:19:47.574Z,1.20
2023-03-16T04:22:15.088Z,1.20
2023-03-16T04:24:43.672Z,1.10
2023-03-16T04:27:14.100Z,1.20
2023-03-16T04:29:42.905Z,1.20
2023-03-16T04:32:11.352Z,1.20
2023-03-16T04:34:42.145Z,1.20
2023-03-16T04:37:09.171Z,1.20
2023-03-16T04:39:36.134Z,1.10
2023-03-16T04:42:03.172Z,1.10
2023-03-16T04:44:30.819Z,1.10
2023-03-16T04:46:59.321Z,1.20
2023-03-16T04:49:26.515Z,1.20
2023-03-16T04:51:53.954Z,1.20
2023-03-16T04:54:21.484Z,1.20
2023-03-16T04:56:48.450Z,1.30
2023-03-16T04:59:15.867Z,1.20
2023-03-16T05:01:44.070Z,1.20
2023-03-16T05:04:18.909Z,1.10
2023-03-16T05:06:46.522Z,1.20
2023-03-16T05:09:14.034Z,1.20
2023-03-16T05:11:41.004Z,1.20
2023-03-16T05:14:08.436Z,1.30
2023-03-16T05:16:35.443Z,1.30
2023-03-16T05:19:02.621Z,1.30
2023-03-16T05:21:32.126Z,1.30
2023-03-16T05:23:59.662Z,1.40
2023-03-16T05:26:26.603Z,1.40
2023-03-16T05:28:53.730Z,1.30
2023-03-16T05:31:20.744Z,1.30
2023-03-16T05:33:48.176Z,1.40
2023-03-16T05:36:15.693Z,1.40
2023-03-16T05:38:44.044Z,1.50
2023-03-16T05:41:10.991Z,1.50
2023-03-16T05:43:37.929Z,1.40
2023-03-16T05:46:06.050Z,1.50
2023-03-16T05:48:33.108Z,1.60
2023-03-16T05:51:00.110Z,1.50
2023-03-16T05:53:28.722Z,1.50
2023-03-16T05:55:57.577Z,1.70
2023-03-16T05:58:24.557Z,1.70
2023-03-16T06:03:36.679Z,1.80
2023-03-16T06:06:04.948Z,1.80
2023-03-16T06:08:31.946Z,1.80
2023-03-16T06:11:00.257Z,1.80
2023-03-16T06:13:27.366Z,1.90
2023-03-16T06:15:54.393Z,1.90
2023-03-16T06:18:21.464Z,2.10
2023-03-16T06:20:48.538Z,2.10
2023-03-16T06:23:15.537Z,2.20
2023-03-16T06:25:43.556Z,2.10
2023-03-16T06:28:11.837Z,2.20
2023-03-16T06:30:39.847Z,2.30
2023-03-16T06:33:07.500Z,2.40
2023-03-16T06:35:34.724Z,2.60
2023-03-16T06:38:01.904Z,2.60
2023-03-16T06:40:29.181Z,2.80
2023-03-16T06:42:57.040Z,2.70
2023-03-16T06:45:25.673Z,2.70
2023-03-16T06:47:53.189Z,2.90
2023-03-16T06:50:20.710Z,3.00
2023-03-16T06:52:47.711Z,3.10
2023-03-16T06:55:15.244Z,3.20
2023-03-16T06:57:42.200Z,3.30
2023-03-16T07:00:15.532Z,3.10
2023-03-16T07:02:44.419Z,3.10
2023-03-16T07:05:14.911Z,3.10
2023-03-16T07:07:43.235Z,3.10
2023-03-16T07:10:13.743Z,3.20
2023-03-16T07:12:42.300Z,3.40
2023-03-16T07:15:10.905Z,3.50
2023-03-16T07:17:38.015Z,3.70
2023-03-16T07:20:10.535Z,3.60
2023-03-16T07:22:38.057Z,3.70
2023-03-16T07:25:07.641Z,3.70
2023-03-16T07:30:19.695Z,4.00
2023-03-16T07:32:46.793Z,4.00
2023-03-16T07:35:15.497Z,4.10
2023-03-16T07:37:42.643Z,4.20
2023-03-16T07:40:11.773Z,4.30
2023-03-16T07:42:39.295Z,4.40
2023-03-16T07:45:08.576Z,4.70
2023-03-16T07:47:36.132Z,4.80
2023-03-16T07:50:03.802Z,4.90
2023-03-16T07:52:32.592Z,5.00
2023-03-16T07:54:59.615Z,5.00
2023-03-16T07:57:26.723Z,5.00
2023-03-16T07:59:53.673Z,5.10
2023-03-16T08:05:07.435Z,5.20
2023-03-16T08:07:35.858Z,5.30
2023-03-16T08:10:04.121Z,5.50
2023-03-16T08:12:31.776Z,5.70
2023-03-16T08:14:59.275Z,6.50
2023-03-16T08:17:26.311Z,9.30
2023-03-16T08:19:53.455Z,14.30
2023-03-16T08:22:21.465Z,17.20
2023-03-16T08:24:50.470Z,18.30
2023-03-16T08:27:20.388Z,19.00
2023-03-16T08:29:47.398Z,20.90
2023-03-16T08:32:14.449Z,20.50
2023-03-16T08:34:41.390Z,20.70
2023-03-16T08:37:09.643Z,16.70
2023-03-16T08:39:37.115Z,14.60
2023-03-16T08:42:08.029Z,12.20
2023-03-16T08:44:36.819Z,11.00
2023-03-16T08:47:05.146Z,10.40
2023-03-16T08:49:32.600Z,9.80
2023-03-16T08:52:00.740Z,9.60
2023-03-16T08:54:27.855Z,9.50
2023-03-16T08:56:55.287Z,9.50
2023-03-16T08:59:30.134Z,9.50
2023-03-16T09:01:57.946Z,9.30
2023-03-16T09:04:25.547Z,9.10
2023-03-16T09:07:07.808Z,8.80
2023-03-16T09:12:22.314Z,8.80
2023-03-16T09:14:50.789Z,8.80
2023-03-16T09:17:18.654Z,8.70
2023-03-16T09:19:56.256Z,8.60
2023-03-16T09:22:28.705Z,8.50
2023-03-16T09:24:55.607Z,8.50
2023-03-16T09:27:22.786Z,8.50
2023-03-16T09:29:53.009Z,8.60
2023-03-16T09:32:19.982Z,8.60
2023-03-16T09:34:47.200Z,8.70
2023-03-16T09:37:15.016Z,8.80
2023-03-16T09:39:41.947Z,8.80
2023-03-16T09:42:17.961Z,9.00
2023-03-16T09:45:02.773Z,9.00
2023-03-16T09:47:34.336Z,8.90
2023-03-16T09:50:05.395Z,8.80
2023-03-16T09:52:41.785Z,8.70
2023-03-16T09:55:23.006Z,8.80
2023-03-16T09:57:53.402Z,8.70
2023-03-16T10:00:25.759Z,8.50
2023-03-16T10:03:18.198Z,8.80
2023-03-16T10:05:48.520Z,9.00
2023-03-16T10:08:22.181Z,8.90
2023-03-16T10:11:23.665Z,9.10
2023-03-16T10:13:55.551Z,9.30
2023-03-16T10:16:30.752Z,9.40
2023-03-16T10:19:03.179Z,9.40
2023-03-16T10:21:35.002Z,9.60
2023-03-16T10:24:05.025Z,9.70
2023-03-16T10:26:39.612Z,9.80
2023-03-16T10:29:12.518Z,9.80
2023-03-16T10:31:43.008Z,9.60
2023-03-16T10:34:10.832Z,9.50
2023-03-16T10:36:42.112Z,9.50
2023-03-16T10:39:13.491Z,9.50
2023-03-16T10:43:57.218Z,9.70
2023-03-16T10:46:28.002Z,9.70
2023-03-16T10:48:59.994Z,9.70
2023-03-16T10:51:30.148Z,9.60
2023-03-16T10:54:07.457Z,9.60
2023-03-16T10:56:36.506Z,9.70
2023-03-16T10:59:17.136Z,9.60
2023-03-16T11:01:52.646Z,9.60
2023-03-16T11:04:20.578Z,9.70
2023-03-16T11:06:53.467Z,9.70
2023-03-16T11:09:25.552Z,9.70
2023-03-16T11:11:53.250Z,9.80
2023-03-16T11:14:28.157Z,9.70
2023-03-16T11:17:03.186Z,9.80
2023-03-16T11:19:33.727Z,9.90
2023-03-16T11:22:04.986Z,10.10
2023-03-16T11:24:45.535Z,10.20
2023-03-16T11:27:22.471Z,10.30
2023-03-16T11:30:05.376Z,10.30
2023-03-16T11:32:36.748Z,10.30
2023-03-16T11:35:13.793Z,10.40
2023-03-16T11:38:09.483Z,10.60
2023-03-16T11:40:47.373Z,10.70
2023-03-16T11:43:46.655Z,11.00
2023-03-16T11:46:21.754Z,11.30
2023-03-16T11:49:00.011Z,11.40
2023-03-16T11:51:42.372Z,11.40
2023-03-16T11:54:36.979Z,11.40
2023-03-16T11:57:14.588Z,11.40
2023-03-16T12:03:28.694Z,11.50
2023-03-16T12:06:07.775Z,11.50
2023-03-16T12:08:55.869Z,11.30
2023-03-16T12:11:28.803Z,11.10
2023-03-16T12:14:15.739Z,11.10
2023-03-16T12:16:50.128Z,11.20
2023-03-16T12:19:24.722Z,11.10
2023-03-16T12:22:03.114Z,11.10
2023-03-16T12:24:43.961Z,11.10
2023-03-16T12:27:17.719Z,11.10
2023-03-16T12:29:59.882Z,11.20
2023-03-16T12:32:42.486Z,11.00
2023-03-16T12:35:28.266Z,10.90
2023-03-16T12:38:16.453Z,10.80
2023-03-16T12:40:53.150Z,10.80
2023-03-16T12:43:43.142Z,10.90
2023-03-16T12:46:14.227Z,11.10
2023-03-16T12:48:45.081Z,11.20
2023-03-16T12:51:13.625Z,11.30
2023-03-16T12:53:45.166Z,11.50
2023-03-16T12:56:16.462Z,11.70
2023-03-16T12:58:47.384Z,11.70
2023-03-16T13:01:18.493Z,11.80
2023-03-16T13:03:48.329Z,12.00
2023-03-16T13:06:23.354Z,11.80
2023-03-16T13:08:56.046Z,11.60
2023-03-16T13:11:24.214Z,11.60
2023-03-16T13:14:06.031Z,11.60
2023-03-16T13:16:38.414Z,11.50
2023-03-16T13:19:26.387Z,11.50
2023-03-16T13:22:19.830Z,11.30
2023-03-16T13:24:53.072Z,11.30
2023-03-16T13:27:28.575Z,11.30
2023-03-16T13:29:58.311Z,11.30
2023-03-16T13:32:30.692Z,11.40
2023-03-16T13:35:00.626Z,11.40
2023-03-16T13:37:30.339Z,11.50
2023-03-16T13:40:00.684Z,11.50
2023-03-16T13:42:32.424Z,11.60
2023-03-16T13:45:11.953Z,11.60
2023-03-16T13:47:43.127Z,11.50
2023-03-16T13:50:13.761Z,11.40
2023-03-16T13:52:44.098Z,11.50
2023-03-16T13:55:17.836Z,11.50
2023-03-16T13:57:46.804Z,11.50
2023-03-16T14:00:20.514Z,11.50
2023-03-16T14:02:55.264Z,11.60
2023-03-16T14:05:26.614Z,11.80
2023-03-16T14:07:57.268Z,11.80
2023-03-16T14:10:29.669Z,12.00
2023-03-16T14:13:06.445Z,12.10
2023-03-16T14:15:34.237Z,12.00
2023-03-16T14:18:15.576Z,12.00
2023-03-16T14:20:42.974Z,12.10
2023-03-16T14:23:24.609Z,12.20
2023-03-16T14:25:53.800Z,12.20
2023-03-16T14:28:27.540Z,12.30
2023-03-16T14:31:03.851Z,12.40
2023-03-16T14:33:34.213Z,12.40
2023-03-16T14:36:12.843Z,12.40
2023-03-16T14:38:44.133Z,12.50
2023-03-16T14:41:22.884Z,12.50
2023-03-16T14:43:53.293Z,12.50
2023-03-16T14:46:28.903Z,12.60
2023-03-16T14:49:04.009Z,12.60
2023-03-16T14:51:32.440Z,12.60
2023-03-16T14:54:01.152Z,12.50
2023-03-16T14:56:34.136Z,12.60
2023-03-16T14:59:01.626Z,12.60
2023-03-16T15:01:28.618Z,12.60
2023-03-16T15:03:56.306Z,12.60
2023-03-16T15:06:23.362Z,12.50
2023-03-16T15:08:51.327Z,12.40
2023-03-16T15:11:21.572Z,12.30
2023-03-16T15:13:49.258Z,12.20
2023-03-16T15:16:16.729Z,12.00
2023-03-16T15:18:44.203Z,11.90
2023-03-16T15:21:13.059Z,11.80
2023-03-16T15:23:43.200Z,11.80
2023-03-16T15:26:11.381Z,11.90
2023-03-16T15:28:40.449Z,11.90
2023-03-16T15:31:07.598Z,11.90
2023-03-16T15:33:34.610Z,11.90
2023-03-16T15:36:12.512Z,12.00
2023-03-16T15:38:42.964Z,12.00
2023-03-16T15:41:12.425Z,12.10
2023-03-16T15:43:40.784Z,12.10
2023-03-16T15:46:08.251Z,12.10
2023-03-16T15:48:35.280Z,12.10
2023-03-16T15:51:08.895Z,12.00
2023-03-16T15:53:40.049Z,11.90
2023-03-16T15:56:10.006Z,11.80
2023-03-16T15:58:42.334Z,11.80
2023-03-16T16:01:20.210Z,11.80
2023-03-16T16:03:48.407Z,11.70
2023-03-16T16:06:17.685Z,11.60
2023-03-16T16:08:44.770Z,11.60
2023-03-16T16:11:17.257Z,11.60
2023-03-16T16:13:46.753Z,11.60
2023-03-16T16:16:18.235Z,11.50
2023-03-16T16:18:47.047Z,11.50
2023-03-16T16:21:18.411Z,11.50
2023-03-16T16:23:46.293Z,11.40
2023-03-16T16:26:27.939Z,11.40
2023-03-16T16:29:00.724Z,11.40
2023-03-16T16:31:31.000Z,11.40
2023-03-16T16:33:59.110Z,11.40
2023-03-16T16:36:26.144Z,11.30
2023-03-16T16:38:56.991Z,11.40
2023-03-16T16:41:29.193Z,11.30
2023-03-16T16:43:57.317Z,11.30
2023-03-16T16:46:28.999Z,11.30
2023-03-16T16:49:01.606Z,11.20
2023-03-16T16:51:30.754Z,11.20
2023-03-16T16:53:59.564Z,11.20
2023-03-16T16:56:29.658Z,11.10
2023-03-16T16:58:58.583Z,11.20
2023-03-16T17:01:32.894Z,11.10
2023-03-16T17:04:00.313Z,11.00
2023-03-16T17:06:27.949Z,11.00
2023-03-16T17:08:55.616Z,10.90
2023-03-16T17:11:27.016Z,10.90
2023-03-16T17:13:56.314Z,10.80
2023-03-16T17:16:23.455Z,10.80
2023-03-16T17:18:53.418Z,10.80
2023-03-16T17:21:23.698Z,10.70
2023-03-16T17:23:52.690Z,10.70
2023-03-16T17:29:18.739Z,10.60
2023-03-16T17:31:45.927Z,10.50
2023-03-16T17:34:19.341Z,10.50
2023-03-16T17:36:47.471Z,10.50
2023-03-16T17:39:18.728Z,10.40
2023-03-16T17:41:46.595Z,10.40
2023-03-16T17:44:15.189Z,10.40
2023-03-16T17:46:42.731Z,10.30
2023-03-16T17:49:13.922Z,10.30
2023-03-16T17:51:43.834Z,10.30
2023-03-16T17:54:11.350Z,10.20
2023-03-16T17:56:40.724Z,10.20
2023-03-16T18:02:01.517Z,10.10
2023-03-16T18:04:28.521Z,10.10
2023-03-16T18:06:56.792Z,10.00
2023-03-16T18:09:23.721Z,10.00
2023-03-16T18:11:51.721Z,10.00
2023-03-16T18:14:25.906Z,9.90
2023-03-16T18:16:54.645Z,9.90
2023-03-16T18:19:25.356Z,9.90
2023-03-16T18:21:53.644Z,9.90
2023-03-16T18:24:25.605Z,9.90
2023-03-16T18:26:53.254Z,9.90
2023-03-16T18:29:20.363Z,9.90
2023-03-16T18:31:47.927Z,10.00
2023-03-16T18:34:24.140Z,10.00
2023-03-16T18:36:53.122Z,9.90
2023-03-16T18:39:23.074Z,9.80
2023-03-16T18:41:50.954Z,9.70
2023-03-16T18:44:21.776Z,9.70
2023-03-16T18:46:50.054Z,9.60
2023-03-16T18:49:21.592Z,9.60
2023-03-16T18:51:51.265Z,9.60
2023-03-16T18:54:23.487Z,9.60
2023-03-16T18:56:51.384Z,9.60
2023-03-16T18:59:18.438Z,9.50
2023-03-16T19:01:46.357Z,9.50
2023-03-16T19:04:21.404Z,9.50
2023-03-16T19:09:36.620Z,9.50
2023-03-16T19:12:04.140Z,9.50
2023-03-16T19:14:34.501Z,9.40
2023-03-16T19:19:46.528Z,8.80
2023-03-16T19:22:18.548Z,8.80
2023-03-16T19:24:50.337Z,8.70
2023-03-16T19:27:22.729Z,8.50
2023-03-16T19:29:52.326Z,8.40
2023-03-16T19:32:21.315Z,8.40
2023-03-16T19:34:48.812Z,8.30
2023-03-16T19:37:18.057Z,8.30
2023-03-16T19:39:46.826Z,8.30
2023-03-16T19:42:21.647Z,8.30
2023-03-16T19:44:50.208Z,8.30
2023-03-16T19:47:27.064Z,8.20
2023-03-16T19:49:54.844Z,8.20
2023-03-16T19:52:21.833Z,8.10
2023-03-16T19:54:51.455Z,8.00
2023-03-16T19:57:20.895Z,7.90
2023-03-16T19:59:52.341Z,7.70
2023-03-16T20:02:26.499Z,7.60
2023-03-16T20:04:55.132Z,7.60
2023-03-16T20:07:22.918Z,7.60
2023-03-16T20:09:51.953Z,7.60
2023-03-16T20:12:23.518Z,7.50
2023-03-16T20:14:52.021Z,7.50
2023-03-16T20:17:23.396Z,7.50
2023-03-16T20:19:51.303Z,7.50
2023-03-16T20:22:21.377Z,7.30
2023-03-16T20:24:51.424Z,7.30
2023-03-16T20:27:19.870Z,7.30
2023-03-16T20:29:47.836Z,7.30
2023-03-16T20:32:19.976Z,7.20
2023-03-16T20:34:47.797Z,7.10
2023-03-16T20:37:26.753Z,7.00
2023-03-16T20:39:58.298Z,6.80
2023-03-16T20:42:29.670Z,6.90
2023-03-16T20:44:56.653Z,6.90
2023-03-16T20:47:25.572Z,6.90
2023-03-16T20:49:55.045Z,6.80
2023-03-16T20:52:24.354Z,6.80
2023-03-16T20:54:52.426Z,6.70
2023-03-16T20:57:24.154Z,6.70
2023-03-16T20:59:53.858Z,6.60
2023-03-16T21:02:28.501Z,6.60
2023-03-16T21:04:57.115Z,6.50
2023-03-16T21:07:24.575Z,6.60
2023-03-16T21:09:52.080Z,6.70
2023-03-16T21:12:27.327Z,6.60
2023-03-16T21:14:56.609Z,6.60
2023-03-16T21:17:27.949Z,6.60
2023-03-16T21:19:55.128Z,6.50
2023-03-16T21:22:26.526Z,6.40
2023-03-16T21:24:54.236Z,6.30
2023-03-16T21:27:27.028Z,6.30
2023-03-16T21:29:56.796Z,6.30
2023-03-16T21:32:27.602Z,6.30
2023-03-16T21:34:57.214Z,6.30
2023-03-16T21:37:25.306Z,6.20
2023-03-16T21:39:52.489Z,6.00
2023-03-16T21:42:20.382Z,6.10
2023-03-16T21:44:49.312Z,6.00
2023-03-16T21:47:25.691Z,6.00
2023-03-16T21:49:55.190Z,6.00
2023-03-16T21:52:24.549Z,5.90
2023-03-16T21:57:37.739Z,6.00
2023-03-16T22:00:08.336Z,5.90
2023-03-16T22:02:37.078Z,5.80
2023-03-16T22:05:24.983Z,5.90
2023-03-16T22:07:52.209Z,5.90
2023-03-16T22:10:20.203Z,5.90
2023-03-16T22:12:47.139Z,5.70
2023-03-16T22:15:15.613Z,5.70
2023-03-16T22:17:42.768Z,5.70
2023-03-16T22:20:18.154Z,5.70
2023-03-16T22:22:45.754Z,5.60
2023-03-16T22:25:19.445Z,5.50
2023-03-16T22:27:47.772Z,5.50
2023-03-16T22:30:24.205Z,5.50
2023-03-16T22:32:53.960Z,5.50
2023-03-16T22:35:31.764Z,5.60
2023-03-16T22:38:01.847Z,5.60
2023-03-16T22:40:32.922Z,5.60
2023-03-16T22:43:05.060Z,5.50
2023-03-16T22:45:34.709Z,5.50
2023-03-16T22:48:12.672Z,5.50
2023-03-16T22:50:39.675Z,5.50
2023-03-16T22:53:12.320Z,5.50
2023-03-16T22:55:40.535Z,5.40
2023-03-16T22:58:15.014Z,5.50
2023-03-16T23:00:44.693Z,5.50
2023-03-16T23:03:18.622Z,5.50
2023-03-16T23:05:46.936Z,5.50
2023-03-16T23:08:17.287Z,5.60
2023-03-16T23:10:45.493Z,5.50
2023-03-16T23:13:16.049Z,5.50
2023-03-16T23:15:46.763Z,5.60
2023-03-16T23:18:19.487Z,5.60
2023-03-16T23:20:47.671Z,5.50
2023-03-16T23:23:15.826Z,5.40
2023-03-16T23:25:44.119Z,5.40
2023-03-16T23:28:16.298Z,5.50
2023-03-16T23:30:44.704Z,5.40
2023-03-16T23:33:13.358Z,5.40
2023-03-16T23:35:41.356Z,5.40
2023-03-16T23:38:08.463Z,5.30
2023-03-16T23:40:38.797Z,5.30
2023-03-16T23:43:07.612Z,5.40
2023-03-16T23:45:41.097Z,5.40
2023-03-16T23:48:14.321Z,5.40
2023-03-16T23:50:44.055Z,5.30
2023-03-16T23:53:13.701Z,5.30
2023-03-16T23:55:42.264Z,5.40
2023-03-16T23:58:10.381Z,5.30
